sensor_id;sensor_type;location;lat;lon;timestamp;pressure;altitude;pressure_sealevel;temperature;humidity
18858;BME280;9558;50.178;8.370;2023-02-11T00:00:20;100113.91;;;0.46;100.00
18858;BME280;9558;50.178;8.370;2023-02-11T00:02:46;100108.56;;;0.52;100.00
18858;BME280;9558;50.178;8.370;2023-02-11T00:05:13;100110.47;;;0.47;100.00
18858;BME280;9558;50.178;8.370;2023-02-11T00:07:41;100110.34;;;0.50;100.00
18858;BME280;9558;50.178;8.370;2023-02-11T00:10:08;100100.03;;;0.54;100.00
18858;BME280;9558;50.178;8.370;2023-02-11T00:12:35;100108.41;;;0.56;100.00
18858;BME280;9558;50.178;8.370;2023-02-11T00:15:02;100099.84;;;0.58;100.00
18858;BME280;9558;50.178;8.370;2023-02-11T00:17:29;100096.28;;;0.62;100.00
18858;BME280;9558;50.178;8.370;2023-02-11T00:19:56;100101.31;;;0.64;100.00
18858;BME280;9558;50.178;8.370;2023-02-11T00:22:23;100093.44;;;0.68;100.00
18858;BME280;9558;50.178;8.370;2023-02-11T00:24:51;100087.59;;;0.66;100.00
18858;BME280;9558;50.178;8.370;2023-02-11T00:27:17;100087.53;;;0.68;100.00
18858;BME280;9558;50.178;8.370;2023-02-11T00:29:44;100085.63;;;0.73;100.00
18858;BME280;9558;50.178;8.370;2023-02-11T00:32:10;100090.75;;;0.73;100.00
18858;BME280;9558;50.178;8.370;2023-02-11T00:34:37;100085.50;;;0.76;100.00
18858;BME280;9558;50.178;8.370;2023-02-11T00:37:04;100078.59;;;0.78;100.00
18858;BME280;9558;50.178;8.370;2023-02-11T00:39:31;100081.03;;;0.81;100.00
18858;BME280;9558;50.178;8.370;2023-02-11T00:41:59;100088.63;;;0.83;100.00
18858;BME280;9558;50.178;8.370;2023-02-11T00:44:25;100088.44;;;0.88;100.00
18858;BME280;9558;50.178;8.370;2023-02-11T00:46:51;100081.72;;;0.85;100.00
18858;BME280;9558;50.178;8.370;2023-02-11T00:49:18;100086.75;;;0.86;100.00
18858;BME280;9558;50.178;8.370;2023-02-11T00:51:44;100086.63;;;0.90;100.00
18858;BME280;9558;50.178;8.370;2023-02-11T00:54:11;100082.47;;;0.87;100.00
18858;BME280;9558;50.178;8.370;2023-02-11T00:56:38;100084.00;;;0.91;100.00
18858;BME280;9558;50.178;8.370;2023-02-11T00:59:05;100095.06;;;0.92;100.00
18858;BME280;9558;50.178;8.370;2023-02-11T01:01:32;100078.09;;;0.91;100.00
18858;BME280;9558;50.178;8.370;2023-02-11T01:03:58;100085.59;;;0.94;100.00
18858;BME280;9558;50.178;8.370;2023-02-11T01:06:25;100079.28;;;1.02;100.00
18858;BME280;9558;50.178;8.370;2023-02-11T01:08:51;100081.97;;;0.99;100.00
18858;BME280;9558;50.178;8.370;2023-02-11T01:11:20;100079.41;;;0.99;100.00
18858;BME280;9558;50.178;8.370;2023-02-11T01:13:48;100082.78;;;1.00;100.00
18858;BME280;9558;50.178;8.370;2023-02-11T01:16:18;100081.00;;;1.02;100.00
18858;BME280;9558;50.178;8.370;2023-02-11T01:18:44;100072.47;;;1.03;100.00
18858;BME280;9558;50.178;8.370;2023-02-11T01:21:11;100071.63;;;1.02;100.00
18858;BME280;9558;50.178;8.370;2023-02-11T01:23:37;100074.88;;;1.06;100.00
18858;BME280;9558;50.178;8.370;2023-02-11T01:26:04;100074.75;;;1.09;100.00
18858;BME280;9558;50.178;8.370;2023-02-11T01:28:31;100068.63;;;1.13;100.00
18858;BME280;9558;50.178;8.370;2023-02-11T01:30:59;100071.16;;;1.13;100.00
18858;BME280;9558;50.178;8.370;2023-02-11T01:33:28;100066.75;;;1.17;100.00
18858;BME280;9558;50.178;8.370;2023-02-11T01:35:54;100073.38;;;1.21;100.00
18858;BME280;9558;50.178;8.370;2023-02-11T01:38:24;100069.03;;;1.23;100.00
18858;BME280;9558;50.178;8.370;2023-02-11T01:40:53;100064.75;;;1.24;100.00
18858;BME280;9558;50.178;8.370;2023-02-11T01:43:21;100062.22;;;1.24;100.00
18858;BME280;9558;50.178;8.370;2023-02-11T01:45:59;100049.47;;;1.24;100.00
18858;BME280;9558;50.178;8.370;2023-02-11T01:48:31;100053.59;;;1.26;100.00
18858;BME280;9558;50.178;8.370;2023-02-11T01:51:00;100049.31;;;1.27;100.00
18858;BME280;9558;50.178;8.370;2023-02-11T01:53:28;100047.59;;;1.27;100.00
18858;BME280;9558;50.178;8.370;2023-02-11T01:56:13;100043.09;;;1.32;100.00
18858;BME280;9558;50.178;8.370;2023-02-11T01:59:04;100046.34;;;1.36;100.00
18858;BME280;9558;50.178;8.370;2023-02-11T02:01:32;100040.34;;;1.37;100.00
18858;BME280;9558;50.178;8.370;2023-02-11T02:04:05;100040.00;;;1.45;100.00
18858;BME280;9558;50.178;8.370;2023-02-11T02:06:34;100039.16;;;1.44;100.00
18858;BME280;9558;50.178;8.370;2023-02-11T02:09:05;100027.19;;;1.46;100.00
18858;BME280;9558;50.178;8.370;2023-02-11T02:11:34;100036.34;;;1.50;100.00
18858;BME280;9558;50.178;8.370;2023-02-11T02:14:01;100030.31;;;1.51;100.00
18858;BME280;9558;50.178;8.370;2023-02-11T02:16:30;100031.75;;;1.57;100.00
18858;BME280;9558;50.178;8.370;2023-02-11T02:22:10;100019.78;;;1.59;100.00
18858;BME280;9558;50.178;8.370;2023-02-11T02:24:55;100026.41;;;1.63;100.00
18858;BME280;9558;50.178;8.370;2023-02-11T02:27:45;100015.50;;;1.60;100.00
18858;BME280;9558;50.178;8.370;2023-02-11T02:30:51;100017.16;;;1.61;100.00
18858;BME280;9558;50.178;8.370;2023-02-11T02:33:41;100023.13;;;1.60;100.00
18858;BME280;9558;50.178;8.370;2023-02-11T02:36:14;100020.59;;;1.60;100.00
18858;BME280;9558;50.178;8.370;2023-02-11T02:38:49;100025.69;;;1.60;100.00
18858;BME280;9558;50.178;8.370;2023-02-11T02:41:20;100029.91;;;1.61;100.00
18858;BME280;9558;50.178;8.370;2023-02-11T02:43:49;100028.31;;;1.58;100.00
18858;BME280;9558;50.178;8.370;2023-02-11T02:46:17;100027.50;;;1.58;100.00
18858;BME280;9558;50.178;8.370;2023-02-11T02:48:45;100019.84;;;1.58;100.00
18858;BME280;9558;50.178;8.370;2023-02-11T02:51:43;100019.38;;;1.49;100.00
18858;BME280;9558;50.178;8.370;2023-02-11T02:54:28;100015.16;;;1.48;100.00
18858;BME280;9558;50.178;8.370;2023-02-11T02:57:10;100012.75;;;1.45;100.00
18858;BME280;9558;50.178;8.370;2023-02-11T02:59:49;100011.09;;;1.44;100.00
18858;BME280;9558;50.178;8.370;2023-02-11T03:02:23;100002.69;;;1.42;100.00
18858;BME280;9558;50.178;8.370;2023-02-11T03:04:57;100009.53;;;1.42;100.00
18858;BME280;9558;50.178;8.370;2023-02-11T03:07:36;100012.09;;;1.42;100.00
18858;BME280;9558;50.178;8.370;2023-02-11T03:10:09;100013.94;;;1.38;100.00
18858;BME280;9558;50.178;8.370;2023-02-11T03:12:39;100014.81;;;1.37;100.00
18858;BME280;9558;50.178;8.370;2023-02-11T03:15:08;100018.31;;;1.36;100.00
18858;BME280;9558;50.178;8.370;2023-02-11T03:17:38;100010.00;;;1.31;100.00
18858;BME280;9558;50.178;8.370;2023-02-11T03:20:10;100011.13;;;1.25;100.00
18858;BME280;9558;50.178;8.370;2023-02-11T03:22:41;100002.66;;;1.25;100.00
18858;BME280;9558;50.178;8.370;2023-02-11T03:25:10;99996.94;;;1.19;100.00
18858;BME280;9558;50.178;8.370;2023-02-11T03:27:41;99992.94;;;1.14;100.00
18858;BME280;9558;50.178;8.370;2023-02-11T03:30:12;100002.47;;;1.10;100.00
18858;BME280;9558;50.178;8.370;2023-02-11T03:32:48;99993.44;;;1.03;100.00
18858;BME280;9558;50.178;8.370;2023-02-11T03:35:20;99990.88;;;1.03;100.00
18858;BME280;9558;50.178;8.370;2023-02-11T03:37:51;99978.31;;;0.98;100.00
18858;BME280;9558;50.178;8.370;2023-02-11T03:40:19;99970.66;;;0.98;100.00
18858;BME280;9558;50.178;8.370;2023-02-11T03:42:49;99963.03;;;0.98;100.00
18858;BME280;9558;50.178;8.370;2023-02-11T03:45:21;99956.97;;;1.01;100.00
18858;BME280;9558;50.178;8.370;2023-02-11T03:47:52;99938.53;;;0.96;100.00
18858;BME280;9558;50.178;8.370;2023-02-11T03:50:22;99941.97;;;0.95;100.00
18858;BME280;9558;50.178;8.370;2023-02-11T03:52:50;99937.00;;;0.92;100.00
18858;BME280;9558;50.178;8.370;2023-02-11T03:55:18;99940.44;;;0.91;100.00
18858;BME280;9558;50.178;8.370;2023-02-11T03:57:46;99924.34;;;0.90;100.00
18858;BME280;9558;50.178;8.370;2023-02-11T04:00:14;99933.16;;;0.83;100.00
18858;BME280;9558;50.178;8.370;2023-02-11T04:02:41;99931.50;;;0.82;100.00
18858;BME280;9558;50.178;8.370;2023-02-11T04:05:10;99935.22;;;0.75;100.00
18858;BME280;9558;50.178;8.370;2023-02-11T04:07:39;99941.25;;;0.72;100.00
18858;BME280;9558;50.178;8.370;2023-02-11T04:10:05;99944.84;;;0.68;100.00
18858;BME280;9558;50.178;8.370;2023-02-11T04:12:32;99946.75;;;0.63;100.00
18858;BME280;9558;50.178;8.370;2023-02-11T04:14:58;99962.19;;;0.60;100.00
18858;BME280;9558;50.178;8.370;2023-02-11T04:17:25;99963.97;;;0.58;100.00
18858;BME280;9558;50.178;8.370;2023-02-11T04:19:51;99960.66;;;0.56;100.00
18858;BME280;9558;50.178;8.370;2023-02-11T04:22:18;99959.97;;;0.52;100.00
18858;BME280;9558;50.178;8.370;2023-02-11T04:24:45;99950.88;;;0.46;100.00
18858;BME280;9558;50.178;8.370;2023-02-11T04:27:12;99956.25;;;0.40;100.00
18858;BME280;9558;50.178;8.370;2023-02-11T04:29:38;99958.91;;;0.37;100.00
18858;BME280;9558;50.178;8.370;2023-02-11T04:32:05;99960.91;;;0.30;100.00
18858;BME280;9558;50.178;8.370;2023-02-11T04:34:32;99972.03;;;0.28;100.00
18858;BME280;9558;50.178;8.370;2023-02-11T04:36:58;99969.56;;;0.26;100.00
18858;BME280;9558;50.178;8.370;2023-02-11T04:39:25;99962.75;;;0.27;100.00
18858;BME280;9558;50.178;8.370;2023-02-11T04:41:55;99960.19;;;0.27;100.00
18858;BME280;9558;50.178;8.370;2023-02-11T04:44:22;99953.34;;;0.29;100.00
18858;BME280;9558;50.178;8.370;2023-02-11T04:46:48;99952.50;;;0.28;100.00
18858;BME280;9558;50.178;8.370;2023-02-11T04:49:16;99954.91;;;0.31;100.00
18858;BME280;9558;50.178;8.370;2023-02-11T04:51:42;99953.88;;;0.36;100.00
18858;BME280;9558;50.178;8.370;2023-02-11T04:54:10;99958.16;;;0.35;100.00
18858;BME280;9558;50.178;8.370;2023-02-11T04:56:37;99956.34;;;0.37;100.00
18858;BME280;9558;50.178;8.370;2023-02-11T04:59:05;99954.59;;;0.39;100.00
18858;BME280;9558;50.178;8.370;2023-02-11T05:01:32;99952.78;;;0.41;100.00
18858;BME280;9558;50.178;8.370;2023-02-11T05:03:59;99945.06;;;0.43;100.00
18858;BME280;9558;50.178;8.370;2023-02-11T05:06:25;99931.47;;;0.44;100.00
18858;BME280;9558;50.178;8.370;2023-02-11T05:08:52;99914.41;;;0.46;100.00
18858;BME280;9558;50.178;8.370;2023-02-11T05:11:20;99916.88;;;0.47;100.00
18858;BME280;9558;50.178;8.370;2023-02-11T05:13:47;99917.69;;;0.48;100.00
18858;BME280;9558;50.178;8.370;2023-02-11T05:16:15;99909.16;;;0.49;100.00
18858;BME280;9558;50.178;8.370;2023-02-11T05:18:43;99904.88;;;0.49;100.00
18858;BME280;9558;50.178;8.370;2023-02-11T05:21:11;99911.56;;;0.52;100.00
18858;BME280;9558;50.178;8.370;2023-02-11T05:23:38;99925.34;;;0.48;100.00
18858;BME280;9558;50.178;8.370;2023-02-11T05:26:05;99917.78;;;0.46;100.00
18858;BME280;9558;50.178;8.370;2023-02-11T05:28:32;99926.94;;;0.50;100.00
18858;BME280;9558;50.178;8.370;2023-02-11T05:31:00;99931.53;;;0.42;100.00
18858;BME280;9558;50.178;8.370;2023-02-11T05:33:28;99935.03;;;0.40;100.00
18858;BME280;9558;50.178;8.370;2023-02-11T05:35:56;99939.31;;;0.39;100.00
18858;BME280;9558;50.178;8.370;2023-02-11T05:38:23;99941.84;;;0.39;100.00
18858;BME280;9558;50.178;8.370;2023-02-11T05:40:49;99942.75;;;0.38;100.00
18858;BME280;9558;50.178;8.370;2023-02-11T05:43:16;99941.06;;;0.37;100.00
18858;BME280;9558;50.178;8.370;2023-02-11T05:45:42;99943.59;;;0.39;100.00
18858;BME280;9558;50.178;8.370;2023-02-11T05:48:09;99940.13;;;0.40;100.00
18858;BME280;9558;50.178;8.370;2023-02-11T05:50:37;99947.84;;;0.38;100.00
18858;BME280;9558;50.178;8.370;2023-02-11T05:53:03;99954.59;;;0.39;100.00
18858;BME280;9558;50.178;8.370;2023-02-11T05:55:31;99949.69;;;0.34;100.00
18858;BME280;9558;50.178;8.370;2023-02-11T05:57:58;99942.88;;;0.35;100.00
18858;BME280;9558;50.178;8.370;2023-02-11T06:00:25;99952.34;;;0.31;100.00
18858;BME280;9558;50.178;8.370;2023-02-11T06:02:51;99954.97;;;0.30;100.00
18858;BME280;9558;50.178;8.370;2023-02-11T06:05:18;99950.78;;;0.29;100.00
18858;BME280;9558;50.178;8.370;2023-02-11T06:07:46;99949.13;;;0.28;100.00
18858;BME280;9558;50.178;8.370;2023-02-11T06:10:13;99956.00;;;0.26;100.00
18858;BME280;9558;50.178;8.370;2023-02-11T06:12:39;99964.47;;;0.26;100.00
18858;BME280;9558;50.178;8.370;2023-02-11T06:15:06;99959.38;;;0.26;100.00
18858;BME280;9558;50.178;8.370;2023-02-11T06:17:32;99964.53;;;0.25;100.00
18858;BME280;9558;50.178;8.370;2023-02-11T06:20:00;99967.84;;;0.27;100.00
18858;BME280;9558;50.178;8.370;2023-02-11T06:22:27;99962.00;;;0.25;100.00
18858;BME280;9558;50.178;8.370;2023-02-11T06:24:55;99966.94;;;0.28;100.00
18858;BME280;9558;50.178;8.370;2023-02-11T06:27:22;99970.38;;;0.27;100.00
18858;BME280;9558;50.178;8.370;2023-02-11T06:29:48;99962.22;;;0.19;100.00
18858;BME280;9558;50.178;8.370;2023-02-11T06:32:16;99960.72;;;0.14;100.00
18858;BME280;9558;50.178;8.370;2023-02-11T06:34:43;99959.19;;;0.10;100.00
18858;BME280;9558;50.178;8.370;2023-02-11T06:37:09;99943.28;;;0.05;100.00
18858;BME280;9558;50.178;8.370;2023-02-11T06:39:36;99939.06;;;0.04;100.00
18858;BME280;9558;50.178;8.370;2023-02-11T06:42:04;99934.13;;;0.01;100.00
18858;BME280;9558;50.178;8.370;2023-02-11T06:44:30;99929.16;;;-0.02;100.00
18858;BME280;9558;50.178;8.370;2023-02-11T06:46:57;99932.72;;;-0.06;100.00
18858;BME280;9558;50.178;8.370;2023-02-11T06:49:23;99940.34;;;-0.06;100.00
18858;BME280;9558;50.178;8.370;2023-02-11T06:51:50;99942.22;;;-0.10;100.00
18858;BME280;9558;50.178;8.370;2023-02-11T06:54:16;99943.28;;;-0.15;100.00
18858;BME280;9558;50.178;8.370;2023-02-11T06:56:43;99946.72;;;-0.16;100.00
18858;BME280;9558;50.178;8.370;2023-02-11T06:59:14;99944.16;;;-0.16;100.00
18858;BME280;9558;50.178;8.370;2023-02-11T07:01:40;99937.34;;;-0.16;100.00
18858;BME280;9558;50.178;8.370;2023-02-11T07:04:07;99939.97;;;-0.18;100.00
18858;BME280;9558;50.178;8.370;2023-02-11T07:06:34;99934.06;;;-0.18;100.00
18858;BME280;9558;50.178;8.370;2023-02-11T07:09:02;99934.75;;;-0.14;100.00
18858;BME280;9558;50.178;8.370;2023-02-11T07:11:29;99949.06;;;-0.12;100.00
18858;BME280;9558;50.178;8.370;2023-02-11T07:13:59;99939.59;;;-0.08;100.00
18858;BME280;9558;50.178;8.370;2023-02-11T07:16:28;99944.50;;;-0.04;100.00
18858;BME280;9558;50.178;8.370;2023-02-11T07:18:54;99945.00;;;0.05;100.00
18858;BME280;9558;50.178;8.370;2023-02-11T07:21:21;99949.03;;;0.10;100.00
18858;BME280;9558;50.178;8.370;2023-02-11T07:23:48;99955.50;;;0.17;100.00
18858;BME280;9558;50.178;8.370;2023-02-11T07:26:17;99950.06;;;0.25;100.00
18858;BME280;9558;50.178;8.370;2023-02-11T07:28:46;99954.00;;;0.32;100.00
18858;BME280;9558;50.178;8.370;2023-02-11T07:31:15;99950.31;;;0.40;100.00
18858;BME280;9558;50.178;8.370;2023-02-11T07:33:43;99942.34;;;0.47;100.00
18858;BME280;9558;50.178;8.370;2023-02-11T07:36:12;99945.44;;;0.54;100.00
18858;BME280;9558;50.178;8.370;2023-02-11T07:38:39;99958.59;;;0.64;100.00
18858;BME280;9558;50.178;8.370;2023-02-11T07:41:07;99962.53;;;0.71;100.00
18858;BME280;9558;50.178;8.370;2023-02-11T07:43:35;99950.00;;;0.85;100.00
18858;BME280;9558;50.178;8.370;2023-02-11T07:46:03;99960.06;;;0.89;100.00
18858;BME280;9558;50.178;8.370;2023-02-11T07:48:30;99961.38;;;0.97;100.00
18858;BME280;9558;50.178;8.370;2023-02-11T07:51:05;99961.78;;;1.07;100.00
18858;BME280;9558;50.178;8.370;2023-02-11T07:53:32;99961.28;;;1.18;100.00
18858;BME280;9558;50.178;8.370;2023-02-11T07:55:58;99964.25;;;1.28;100.00
18858;BME280;9558;50.178;8.370;2023-02-11T07:58:25;99967.34;;;1.34;100.00
18858;BME280;9558;50.178;8.370;2023-02-11T08:00:51;99970.41;;;1.41;100.00
18858;BME280;9558;50.178;8.370;2023-02-11T08:03:18;99977.84;;;1.46;100.00
18858;BME280;9558;50.178;8.370;2023-02-11T08:05:44;99976.75;;;1.51;100.00
18858;BME280;9558;50.178;8.370;2023-02-11T08:08:12;99973.00;;;1.59;100.00
18858;BME280;9558;50.178;8.370;2023-02-11T08:10:38;99976.16;;;1.64;100.00
18858;BME280;9558;50.178;8.370;2023-02-11T08:13:05;99974.22;;;1.69;100.00
18858;BME280;9558;50.178;8.370;2023-02-11T08:15:31;99979.72;;;1.79;100.00
18858;BME280;9558;50.178;8.370;2023-02-11T08:17:58;99991.22;;;1.87;100.00
18858;BME280;9558;50.178;8.370;2023-02-11T08:20:24;99987.38;;;1.96;100.00
18858;BME280;9558;50.178;8.370;2023-02-11T08:22:51;99986.09;;;2.05;100.00
18858;BME280;9558;50.178;8.370;2023-02-11T08:25:18;99988.06;;;2.17;100.00
18858;BME280;9558;50.178;8.370;2023-02-11T08:27:45;99997.19;;;2.21;100.00
18858;BME280;9558;50.178;8.370;2023-02-11T08:30:12;99992.38;;;2.33;100.00
18858;BME280;9558;50.178;8.370;2023-02-11T08:32:39;99989.53;;;2.39;100.00
18858;BME280;9558;50.178;8.370;2023-02-11T08:35:06;100000.56;;;2.39;100.00
18858;BME280;9558;50.178;8.370;2023-02-11T08:37:33;99997.78;;;2.44;100.00
18858;BME280;9558;50.178;8.370;2023-02-11T08:39:59;99988.16;;;2.49;100.00
18858;BME280;9558;50.178;8.370;2023-02-11T08:42:27;99984.38;;;2.56;100.00
18858;BME280;9558;50.178;8.370;2023-02-11T08:44:53;99988.44;;;2.61;100.00
18858;BME280;9558;50.178;8.370;2023-02-11T08:47:20;99986.44;;;2.66;100.00
18858;BME280;9558;50.178;8.370;2023-02-11T08:49:47;99989.44;;;2.74;100.00
18858;BME280;9558;50.178;8.370;2023-02-11T08:52:14;99995.72;;;2.84;100.00
18858;BME280;9558;50.178;8.370;2023-02-11T08:54:40;99992.69;;;2.93;100.00
18858;BME280;9558;50.178;8.370;2023-02-11T08:57:07;99994.63;;;3.06;100.00
18858;BME280;9558;50.178;8.370;2023-02-11T08:59:35;100001.19;;;3.10;100.00
18858;BME280;9558;50.178;8.370;2023-02-11T09:02:04;100001.06;;;3.13;100.00
18858;BME280;9558;50.178;8.370;2023-02-11T09:04:31;100005.06;;;3.17;100.00
18858;BME280;9558;50.178;8.370;2023-02-11T09:06:58;100011.94;;;3.17;100.00
18858;BME280;9558;50.178;8.370;2023-02-11T09:09:24;100009.97;;;3.22;100.00
18858;BME280;9558;50.178;8.370;2023-02-11T09:11:51;100010.53;;;3.27;100.00
18858;BME280;9558;50.178;8.370;2023-02-11T09:14:22;100013.75;;;3.31;100.00
18858;BME280;9558;50.178;8.370;2023-02-11T09:16:51;100021.19;;;3.35;100.00
18858;BME280;9558;50.178;8.370;2023-02-11T09:19:18;100028.44;;;3.43;100.00
18858;BME280;9558;50.178;8.370;2023-02-11T09:21:45;100026.97;;;3.39;100.00
18858;BME280;9558;50.178;8.370;2023-02-11T09:24:11;100030.34;;;3.39;100.00
18858;BME280;9558;50.178;8.370;2023-02-11T09:26:40;100032.56;;;3.45;100.00
18858;BME280;9558;50.178;8.370;2023-02-11T09:29:07;100031.41;;;3.51;100.00
18858;BME280;9558;50.178;8.370;2023-02-11T09:31:34;100032.88;;;3.55;100.00
18858;BME280;9558;50.178;8.370;2023-02-11T09:34:04;100030.91;;;3.60;100.00
18858;BME280;9558;50.178;8.370;2023-02-11T09:36:33;100039.16;;;3.66;100.00
18858;BME280;9558;50.178;8.370;2023-02-11T09:39:03;100037.34;;;3.68;100.00
18858;BME280;9558;50.178;8.370;2023-02-11T09:41:53;100033.63;;;3.73;100.00
18858;BME280;9558;50.178;8.370;2023-02-11T09:44:26;100040.22;;;3.77;100.00
18858;BME280;9558;50.178;8.370;2023-02-11T09:46:54;100043.44;;;3.81;100.00
18858;BME280;9558;50.178;8.370;2023-02-11T09:49:30;100049.22;;;3.85;100.00
18858;BME280;9558;50.178;8.370;2023-02-11T09:52:02;100056.72;;;3.88;100.00
18858;BME280;9558;50.178;8.370;2023-02-11T09:54:35;100051.50;;;3.89;100.00
18858;BME280;9558;50.178;8.370;2023-02-11T09:57:02;100054.66;;;3.94;100.00
18858;BME280;9558;50.178;8.370;2023-02-11T09:59:30;100059.78;;;3.94;100.00
18858;BME280;9558;50.178;8.370;2023-02-11T10:02:00;100061.91;;;4.02;100.00
18858;BME280;9558;50.178;8.370;2023-02-11T10:04:46;100067.50;;;4.09;100.00
18858;BME280;9558;50.178;8.370;2023-02-11T10:07:24;100069.00;;;4.13;100.00
18858;BME280;9558;50.178;8.370;2023-02-11T10:10:03;100074.66;;;4.18;100.00
18858;BME280;9558;50.178;8.370;2023-02-11T10:12:49;100073.59;;;4.22;100.00
18858;BME280;9558;50.178;8.370;2023-02-11T10:15:30;100071.59;;;4.27;100.00
18858;BME280;9558;50.178;8.370;2023-02-11T10:18:13;100074.72;;;4.32;100.00
18858;BME280;9558;50.178;8.370;2023-02-11T10:20:48;100064.28;;;4.36;100.00
18858;BME280;9558;50.178;8.370;2023-02-11T10:23:22;100065.94;;;4.37;100.00
18858;BME280;9558;50.178;8.370;2023-02-11T10:25:51;100064.94;;;4.39;100.00
18858;BME280;9558;50.178;8.370;2023-02-11T10:28:21;100066.50;;;4.42;100.00
18858;BME280;9558;50.178;8.370;2023-02-11T10:30:55;100064.47;;;4.47;100.00
18858;BME280;9558;50.178;8.370;2023-02-11T10:33:25;100073.81;;;4.48;100.00
18858;BME280;9558;50.178;8.370;2023-02-11T10:35:54;100075.31;;;4.52;100.00
18858;BME280;9558;50.178;8.370;2023-02-11T10:38:21;100079.53;;;4.53;100.00
18858;BME280;9558;50.178;8.370;2023-02-11T10:40:48;100076.22;;;4.51;100.00
18858;BME280;9558;50.178;8.370;2023-02-11T10:43:16;100069.28;;;4.53;100.00
18858;BME280;9558;50.178;8.370;2023-02-11T10:45:47;100065.78;;;4.54;100.00
18858;BME280;9558;50.178;8.370;2023-02-11T10:48:37;100068.34;;;4.54;100.00
18858;BME280;9558;50.178;8.370;2023-02-11T10:51:16;100063.03;;;4.57;100.00
18858;BME280;9558;50.178;8.370;2023-02-11T10:53:43;100060.13;;;4.63;100.00
18858;BME280;9558;50.178;8.370;2023-02-11T10:56:13;100054.25;;;4.61;100.00
18858;BME280;9558;50.178;8.370;2023-02-11T10:58:45;100052.44;;;4.63;100.00
18858;BME280;9558;50.178;8.370;2023-02-11T11:01:19;100050.41;;;4.68;100.00
18858;BME280;9558;50.178;8.370;2023-02-11T11:03:48;100044.09;;;4.74;100.00
18858;BME280;9558;50.178;8.370;2023-02-11T11:06:28;100039.69;;;4.76;100.00
18858;BME280;9558;50.178;8.370;2023-02-11T11:08:55;100032.00;;;4.76;100.00
18858;BME280;9558;50.178;8.370;2023-02-11T11:11:23;100031.00;;;4.79;100.00
18858;BME280;9558;50.178;8.370;2023-02-11T11:13:55;100027.34;;;4.83;100.00
18858;BME280;9558;50.178;8.370;2023-02-11T11:16:24;100026.13;;;4.89;100.00
18858;BME280;9558;50.178;8.370;2023-02-11T11:18:52;100031.91;;;4.92;100.00
18858;BME280;9558;50.178;8.370;2023-02-11T11:21:23;100036.03;;;4.95;100.00
18858;BME280;9558;50.178;8.370;2023-02-11T11:23:53;100039.13;;;5.00;100.00
18858;BME280;9558;50.178;8.370;2023-02-11T11:26:21;100038.31;;;4.99;100.00
18858;BME280;9558;50.178;8.370;2023-02-11T11:28:55;100051.34;;;4.96;100.00
18858;BME280;9558;50.178;8.370;2023-02-11T11:31:25;100049.59;;;4.97;100.00
18858;BME280;9558;50.178;8.370;2023-02-11T11:33:55;100060.69;;;4.97;100.00
18858;BME280;9558;50.178;8.370;2023-02-11T11:36:33;100054.63;;;4.98;100.00
18858;BME280;9558;50.178;8.370;2023-02-11T11:39:03;100063.06;;;5.00;100.00
18858;BME280;9558;50.178;8.370;2023-02-11T11:41:49;100066.72;;;4.96;100.00
18858;BME280;9558;50.178;8.370;2023-02-11T11:44:22;100065.81;;;4.97;100.00
18858;BME280;9558;50.178;8.370;2023-02-11T11:46:53;100060.84;;;4.94;100.00
18858;BME280;9558;50.178;8.370;2023-02-11T11:49:34;100063.34;;;4.96;100.00
18858;BME280;9558;50.178;8.370;2023-02-11T11:52:16;100058.38;;;4.93;100.00
18858;BME280;9558;50.178;8.370;2023-02-11T11:54:47;100056.66;;;4.93;100.00
18858;BME280;9558;50.178;8.370;2023-02-11T11:57:18;100056.66;;;4.93;100.00
18858;BME280;9558;50.178;8.370;2023-02-11T11:59:47;100048.13;;;4.93;100.00
18858;BME280;9558;50.178;8.370;2023-02-11T12:02:31;100052.44;;;4.92;100.00
18858;BME280;9558;50.178;8.370;2023-02-11T12:05:08;100041.25;;;4.93;100.00
18858;BME280;9558;50.178;8.370;2023-02-11T12:07:48;100043.44;;;4.99;100.00
18858;BME280;9558;50.178;8.370;2023-02-11T12:13:20;100051.50;;;5.08;100.00
18858;BME280;9558;50.178;8.370;2023-02-11T12:15:56;100050.59;;;5.09;100.00
18858;BME280;9558;50.178;8.370;2023-02-11T12:18:55;100045.38;;;5.10;100.00
18858;BME280;9558;50.178;8.370;2023-02-11T12:21:34;100040.16;;;5.12;100.00
18858;BME280;9558;50.178;8.370;2023-02-11T12:24:17;100034.06;;;5.13;100.00
18858;BME280;9558;50.178;8.370;2023-02-11T12:26:52;100041.59;;;5.16;100.00
18858;BME280;9558;50.178;8.370;2023-02-11T12:29:29;100039.03;;;5.16;100.00
18858;BME280;9558;50.178;8.370;2023-02-11T12:32:08;100037.09;;;5.19;100.00
18858;BME280;9558;50.178;8.370;2023-02-11T12:34:52;100042.88;;;5.23;100.00
18858;BME280;9558;50.178;8.370;2023-02-11T12:37:31;100048.91;;;5.22;100.00
18858;BME280;9558;50.178;8.370;2023-02-11T12:40:14;100045.97;;;5.28;100.00
18858;BME280;9558;50.178;8.370;2023-02-11T12:42:50;100048.53;;;5.28;100.00
18858;BME280;9558;50.178;8.370;2023-02-11T12:46:14;100036.34;;;5.32;100.00
18858;BME280;9558;50.178;8.370;2023-02-11T12:48:56;100036.97;;;5.35;100.00
18858;BME280;9558;50.178;8.370;2023-02-11T12:51:34;100034.19;;;5.39;100.00
18858;BME280;9558;50.178;8.370;2023-02-11T12:54:19;100032.38;;;5.41;100.00
18858;BME280;9558;50.178;8.370;2023-02-11T12:56:54;100035.66;;;5.43;100.00
18858;BME280;9558;50.178;8.370;2023-02-11T12:59:38;100034.56;;;5.47;100.00
18858;BME280;9558;50.178;8.370;2023-02-11T13:02:17;100035.31;;;5.49;100.00
18858;BME280;9558;50.178;8.370;2023-02-11T13:04:47;100031.78;;;5.50;100.00
18858;BME280;9558;50.178;8.370;2023-02-11T13:07:20;100036.03;;;5.51;100.00
18858;BME280;9558;50.178;8.370;2023-02-11T13:09:50;100025.66;;;5.52;100.00
18858;BME280;9558;50.178;8.370;2023-02-11T13:12:21;100022.06;;;5.55;100.00
18858;BME280;9558;50.178;8.370;2023-02-11T13:15:12;100016.81;;;5.57;100.00
18858;BME280;9558;50.178;8.370;2023-02-11T13:17:45;100022.78;;;5.57;100.00
18858;BME280;9558;50.178;8.370;2023-02-11T13:20:24;100012.50;;;5.57;100.00
18858;BME280;9558;50.178;8.370;2023-02-11T13:22:55;100027.00;;;5.58;100.00
18858;BME280;9558;50.178;8.370;2023-02-11T13:25:30;100024.44;;;5.58;100.00
18858;BME280;9558;50.178;8.370;2023-02-11T13:28:15;100021.06;;;5.58;100.00